Friday, February 23, 2018, 7:10 AM EST
Back to Local

KFRG, Farmingdale Republic Airport

Location: Farmingdale, NY, United States Lat: 40.733
Local Time: 7:10 AM EST (12:10 GMT) Lon: -73.417
Time Zone: US/Eastern Elev: 82 ft

Show me the last for .
Show Decoded

2018-02-23 06:53 METAR KFRG 231153Z 06007KT 10SM BKN017 02/M01 A3064 RMK AO2 SLP375 70006
                 T00171006 10022 20017 58005 =
2018-02-23 05:53 METAR KFRG 231053Z AUTO 07005KT 10SM OVC037 02/M01 A3064 RMK AO2 SLP377
                 T00221006 =
2018-02-23 04:53 METAR KFRG 230953Z AUTO 07006KT 10SM OVC038 02/M01 A3066 RMK AO2 SLP381
                 T00221006 =
2018-02-23 03:53 METAR KFRG 230853Z AUTO 04005KT 10SM OVC038 02/01 A3065 RMK AO2 SLP380 T00170006
                 55010 =
2018-02-23 03:11 METAR KFRG 230811Z AUTO 04005KT 10SM SCT010 OVC035 02/01 A3064 RMK AO2 T00170006
                 =
2018-02-23 02:53 METAR KFRG 230753Z AUTO 05006KT 10SM OVC010 02/00 A3065 RMK AO2 SLP378 T00170000
                 =
2018-02-23 02:17 METAR KFRG 230717Z AUTO 04009KT 10SM OVC009 02/01 A3067 RMK AO2 T00170006 =
2018-02-23 01:53 METAR KFRG 230653Z AUTO 04005KT 10SM OVC010 02/01 A3067 RMK AO2 SLP387 T00220006
                 =
2018-02-23 00:53 METAR KFRG 230553Z AUTO 05008KT 10SM OVC010 02/01 A3068 RMK AO2 SLP390 T00220006
                 10022 20017 51012 =
2018-02-22 23:53 METAR KFRG 230453Z AUTO 05008KT 10SM OVC011 02/01 A3066 RMK AO2 SLP383 T00220006
                 401330017 =
2018-02-22 23:30 METAR KFRG 230430Z AUTO 04007KT 10SM BKN013 OVC060 02/01 A3066 RMK AO2 T00220011
                 =
2018-02-22 23:03 METAR KFRG 230403Z AUTO 02008KT 10SM SCT007 BKN015 OVC060 02/01 A3067 RMK AO2
                 T00220011 =
2018-02-22 22:53 METAR KFRG 230353Z AUTO 03006KT 10SM BKN007 OVC014 02/01 A3068 RMK AO2 SLP388
                 T00220011 =
2018-02-22 21:53 METAR KFRG 230253Z 05006KT 10SM OVC007 02/01 A3065 RMK AO2 SLP378 T00220006
                 55000 =
2018-02-22 21:15 METAR KFRG 230215Z 02007KT 10SM OVC009 02/01 A3066 RMK AO2 T00220006 =
2018-02-22 20:53 METAR KFRG 230153Z 04007KT 10SM OVC010 02/01 A3064 RMK AO2 SLP375 T00170006 =
2018-02-22 20:05 METAR KFRG 230105Z 04006KT 10SM BKN010 OVC060 02/01 A3062 RMK AO2 T00170006 =
2018-02-22 19:56 METAR KFRG 230056Z 05007KT 10SM SCT010 OVC060 02/01 A3062 RMK AO2 T00220006 =
2018-02-22 19:53 METAR KFRG 230053Z 06008KT 10SM BKN008 OVC060 02/01 A3062 RMK AO2 SLP370
                 T00220006 =
2018-02-22 18:53 METAR KFRG 222353Z 04010KT 10SM OVC007 02/01 A3065 RMK AO2 SLP378 60006
                 T00220011 10061 20022 51009 =
2018-02-22 18:33 METAR KFRG 222333Z 05009KT 10SM OVC008 03/01 A3064 RMK AO2 CIG 007V014 T00280011
                 =
2018-02-22 18:07 METAR KFRG 222307Z 03010KT 9SM BKN010 OVC060 03/02 A3065 RMK AO2 T00280017 =
2018-02-22 18:00 METAR KFRG 222300Z 03008KT 2SM BKN010 OVC055 03/02 A3065 RMK AO2 SFC VIS 8
                 T00280017 =
2018-02-22 17:53 METAR KFRG 222253Z 04008KT 2SM BR SCT010 BKN017 OVC048 03/02 A3065 RMK AO2 SFC
                 VIS 6 RAB2155E40UPB40E53 SLP378 P0004 T00280017 =
2018-02-22 17:48 METAR KFRG 222248Z 04007KT 2SM UP BR FEW008 BKN012 OVC044 03/02 A3065 RMK AO2
                 SFC VIS 6 RAB2155E40UPB40 P0004 =
2018-02-22 17:37 METAR KFRG 222237Z 03008KT 2SM -RA BR FEW010 BKN017 OVC049 03/02 A3064 RMK AO2
                 SFC VIS 4 RAB2155 P0004 T00280017 =
2018-02-22 17:26 METAR KFRG 222226Z 03008KT 3SM -RA BR FEW010 BKN017 OVC029 03/02 A3065 RMK AO2
                 RAB2155 P0003 T00280017 =
2018-02-22 17:11 METAR KFRG 222211Z 01012KT 2SM RA BR FEW016 BKN041 OVC050 03/01 A3064 RMK AO2
                 RAB2155 P0002 T00280011 =
2018-02-22 16:53 METAR KFRG 222153Z 05005KT 7SM FEW027 OVC045 03/01 A3062 RMK AO2 RAB21E50 SLP369
                 P0000 T00330006 =
2018-02-22 16:49 METAR KFRG 222149Z 05007KT 6SM -RA SCT027 OVC042 03/01 A3062 RMK AO2 RAB21 P0000
                 =
2018-02-22 16:32 METAR KFRG 222132Z 03011KT 6SM -RA BKN027 OVC035 04/01 A3061 RMK AO2 RAB21 P0000
                 T00390006 =
2018-02-22 16:23 METAR KFRG 222123Z 03011KT 5SM -RA SCT025 OVC035 04/01 A3060 RMK AO2 RAB21 P0000
                 T00390011 =
2018-02-22 16:00 METAR KFRG 222100Z 03010KT 10SM FEW016 BKN029 OVC043 04/02 A3059 RMK AO2
                 T00390017 =
2018-02-22 15:53 METAR KFRG 222053Z 02009KT 3SM BKN011 BKN027 OVC035 04/02 A3058 RMK AO2 SFC VIS
                 7 RAE40 SLP356 P0000 60002 T00390022 53015 =
2018-02-22 15:26 METAR KFRG 222026Z 02008KT 3SM -RA BR BKN011 BKN027 OVC035 05/03 A3058 RMK AO2
                 SFC VIS 5 P0000 T00500028 =
2018-02-22 14:53 METAR KFRG 221953Z 06005KT 3SM -RA BR OVC031 04/03 A3055 RMK AO2 SFC VIS 4
                 RAB04E24B31 SLP347 P0002 T00440028 =
2018-02-22 14:27 METAR KFRG 221927Z 04006KT 3SM OVC032 05/02 A3055 RMK AO2 SFC VIS 10 RAB04E24
                 P0001 T00500022 =
2018-02-22 14:12 METAR KFRG 221912Z 05008KT 2SM RA OVC033 05/02 A3055 RMK AO2 SFC VIS 3 RAB04
                 P0001 T00500022 =
2018-02-22 13:53 METAR KFRG 221853Z 03007KT 3SM FEW030 OVC035 06/02 A3056 RMK AO2 SFC VIS 10
                 RAB08E23 SLP348 P0000 T00560017 =
2018-02-22 12:53 METAR KFRG 221753Z 07007G15KT 10SM BKN035 OVC045 06/01 A3054 RMK AO2 RAB09E18
                 SLP341 P0000 60000 T00610006 10072 20061 58016 =
2018-02-22 11:53 METAR KFRG 221653Z 06012G18KT 10SM OVC049 07/01 A3057 RMK AO2 SLP353 T00670006 =
2018-02-22 10:53 METAR KFRG 221553Z 04011KT 10SM OVC050 07/01 A3061 RMK AO2 RAB38E51 SLP366 P0000
                 T00670011 =
2018-02-22 09:53 METAR KFRG 221453Z 06010KT 10SM OVC055 07/01 A3059 RMK AO2 SLP357 60000
                 T00720006 53015 =
2018-02-22 09:27 METAR KFRG 221427Z 05010KT 10SM FEW028 OVC055 07/01 A3059 RMK AO2 T00720006 =
2018-02-22 08:53 METAR KFRG 221353Z 05012KT 10SM BKN027 OVC060 07/02 A3056 RMK AO2 RAB24E36
                 SLP350 P0000 T00720017 =
2018-02-22 08:05 METAR KFRG 221305Z 04011G19KT 10SM BKN023 OVC055 07/02 A3055 RMK AO2 T00720022 =
2018-02-22 07:53 METAR KFRG 221253Z 03012G19KT 10SM FEW022 OVC055 07/03 A3054 RMK AO2 SLP344
                 T00720028 =

Support USWX by starting your Amazon purchase here.